createdAt,value
2018-07-19T00:02:13.390Z,50.09
2018-07-19T00:04:42.600Z,50.18
2018-07-19T00:07:11.732Z,50.33
2018-07-19T00:09:40.869Z,50.46
2018-07-19T00:12:09.957Z,50.81
2018-07-19T00:14:39.074Z,50.76
2018-07-19T00:17:08.649Z,50.87
2018-07-19T00:19:37.725Z,51.04
2018-07-19T00:22:06.942Z,51.04
2018-07-19T00:24:36.031Z,51.37
2018-07-19T00:27:05.103Z,51.29
2018-07-19T00:29:34.174Z,51.51
2018-07-19T00:32:03.380Z,51.48
2018-07-19T00:34:32.548Z,51.74
2018-07-19T00:37:01.720Z,51.80
2018-07-19T00:39:30.833Z,51.86
2018-07-19T00:41:59.936Z,52.10
2018-07-19T00:44:29.082Z,52.48
2018-07-19T00:46:58.210Z,52.62
2018-07-19T00:49:27.440Z,52.72
2018-07-19T00:51:56.581Z,52.79
2018-07-19T00:54:25.694Z,53.01
2018-07-19T00:56:54.831Z,53.51
2018-07-19T00:59:23.918Z,53.46
2018-07-19T01:01:53.040Z,53.93
2018-07-19T01:04:22.171Z,53.97
2018-07-19T01:06:51.354Z,54.39
2018-07-19T01:09:20.530Z,54.56
2018-07-19T01:11:49.468Z,54.63
2018-07-19T01:14:18.618Z,54.99
2018-07-19T01:16:47.853Z,55.31
2018-07-19T01:19:17.033Z,55.40
2018-07-19T01:21:46.155Z,55.60
2018-07-19T01:24:15.270Z,55.74
2018-07-19T01:26:44.349Z,56.08
2018-07-19T01:29:13.503Z,56.06
2018-07-19T01:31:42.625Z,56.36
2018-07-19T01:34:11.681Z,56.30
2018-07-19T01:36:40.868Z,56.58
2018-07-19T01:39:11.386Z,56.61
2018-07-19T01:42:35.533Z,56.98
2018-07-19T01:45:05.846Z,57.05
2018-07-19T01:47:34.963Z,57.42
2018-07-19T01:50:04.782Z,57.33
2018-07-19T01:52:33.933Z,57.42
2018-07-19T01:55:03.035Z,57.43
2018-07-19T01:57:32.173Z,57.62
2018-07-19T02:00:01.362Z,57.42
2018-07-19T02:02:30.511Z,57.50
2018-07-19T02:04:59.649Z,57.55
2018-07-19T02:07:28.773Z,57.69
2018-07-19T02:09:57.926Z,57.72
2018-07-19T02:12:27.092Z,57.91
2018-07-19T02:14:56.162Z,58.02
2018-07-19T02:17:25.277Z,58.08
2018-07-19T02:19:54.371Z,58.12
2018-07-19T02:22:23.489Z,58.56
2018-07-19T02:24:52.697Z,58.52
2018-07-19T02:27:21.918Z,58.71
2018-07-19T02:29:51.012Z,58.89
2018-07-19T02:32:20.122Z,58.95
2018-07-19T02:34:49.289Z,59.14
2018-07-19T02:37:18.443Z,59.34
2018-07-19T02:39:47.594Z,59.63
2018-07-19T02:42:16.688Z,59.63
2018-07-19T02:44:45.807Z,59.73
2018-07-19T02:47:14.954Z,59.69
2018-07-19T02:49:44.123Z,59.73
2018-07-19T02:52:13.292Z,59.76
2018-07-19T02:54:42.433Z,59.93
2018-07-19T02:57:11.595Z,60.22
2018-07-19T02:59:40.781Z,60.09
2018-07-19T03:02:09.952Z,60.63
2018-07-19T03:04:39.026Z,60.70
2018-07-19T03:07:08.179Z,60.78
2018-07-19T03:09:37.364Z,60.57
2018-07-19T03:12:06.493Z,61.14
2018-07-19T03:14:35.644Z,61.25
2018-07-19T03:17:04.789Z,61.52
2018-07-19T03:19:33.927Z,61.59
2018-07-19T03:22:03.009Z,61.28
2018-07-19T03:24:32.173Z,61.63
2018-07-19T03:27:01.351Z,61.61
2018-07-19T03:29:30.494Z,61.66
2018-07-19T03:31:59.617Z,61.92
2018-07-19T03:34:28.751Z,61.89
2018-07-19T03:36:57.914Z,61.67
2018-07-19T03:39:27.009Z,61.24
2018-07-19T03:41:56.133Z,60.91
2018-07-19T03:44:25.250Z,60.82
2018-07-19T03:46:54.313Z,60.63
2018-07-19T03:49:23.430Z,60.29
2018-07-19T03:51:52.542Z,60.43
2018-07-19T03:54:21.686Z,60.23
2018-07-19T03:56:50.819Z,60.46
2018-07-19T03:59:19.930Z,61.10
2018-07-19T04:01:49.115Z,60.69
2018-07-19T04:04:18.211Z,60.65
2018-07-19T04:06:47.369Z,60.42
2018-07-19T04:09:16.624Z,60.53
2018-07-19T04:11:45.773Z,60.48
2018-07-19T04:14:14.912Z,60.08
2018-07-19T04:16:44.058Z,60.32
2018-07-19T04:19:13.126Z,59.88
2018-07-19T04:21:42.286Z,59.42
2018-07-19T04:24:11.419Z,59.30
2018-07-19T04:26:40.562Z,58.83
2018-07-19T04:29:09.669Z,58.34
2018-07-19T04:31:38.800Z,57.70
2018-07-19T04:34:07.927Z,57.42
2018-07-19T04:36:36.998Z,57.59
2018-07-19T04:39:08.373Z,57.64
2018-07-19T04:41:37.474Z,57.37
2018-07-19T04:44:06.668Z,56.74
2018-07-19T04:46:35.881Z,56.77
2018-07-19T04:49:04.971Z,56.64
2018-07-19T04:51:34.107Z,56.85
2018-07-19T04:54:03.253Z,56.84
2018-07-19T04:56:32.393Z,56.54
2018-07-19T04:59:01.510Z,56.51
2018-07-19T05:01:30.643Z,56.55
2018-07-19T05:03:59.811Z,56.60
2018-07-19T05:06:28.883Z,56.01
2018-07-19T05:08:58.020Z,55.38
2018-07-19T05:11:27.279Z,55.61
2018-07-19T05:13:56.426Z,54.97
2018-07-19T05:16:25.562Z,54.39
2018-07-19T05:18:54.703Z,54.54
2018-07-19T05:21:23.788Z,54.26
2018-07-19T05:23:52.896Z,54.11
2018-07-19T05:26:22.037Z,53.72
2018-07-19T05:28:51.117Z,54.52
2018-07-19T05:31:20.345Z,54.51
2018-07-19T05:33:49.490Z,53.93
2018-07-19T05:36:18.573Z,54.59
2018-07-19T05:38:47.691Z,54.34
2018-07-19T05:41:16.853Z,53.72
2018-07-19T05:43:45.999Z,53.68
2018-07-19T05:46:15.173Z,53.57
2018-07-19T05:48:44.380Z,52.88
2018-07-19T05:51:13.511Z,52.21
2018-07-19T05:53:42.654Z,49.64
2018-07-19T05:56:11.814Z,43.20
2018-07-19T05:58:40.941Z,37.44
2018-07-19T06:01:10.072Z,35.33
2018-07-19T06:03:39.202Z,35.33
2018-07-19T06:06:08.350Z,33.26
2018-07-19T06:08:37.475Z,31.16
2018-07-19T06:11:07.228Z,28.96
2018-07-19T06:13:36.375Z,28.82
2018-07-19T06:16:05.569Z,28.83
2018-07-19T06:18:34.709Z,29.15
2018-07-19T06:21:03.857Z,29.36
2018-07-19T06:23:32.954Z,31.07
2018-07-19T06:26:02.056Z,32.64
2018-07-19T06:28:31.155Z,30.25
2018-07-19T06:31:00.278Z,29.95
2018-07-19T06:33:29.566Z,28.51
2018-07-19T06:35:59.211Z,26.59
2018-07-19T06:38:28.414Z,26.14
2018-07-19T06:40:57.541Z,27.12
2018-07-19T06:43:26.634Z,27.71
2018-07-19T06:45:55.802Z,27.53
2018-07-19T06:48:24.903Z,27.19
2018-07-19T06:50:54.026Z,28.19
2018-07-19T06:53:23.136Z,35.02
2018-07-19T06:55:52.229Z,39.99
2018-07-19T06:58:21.336Z,41.50
2018-07-19T07:00:51.420Z,41.38
2018-07-19T07:03:20.561Z,41.40
2018-07-19T07:05:49.650Z,41.57
2018-07-19T07:08:18.764Z,42.96
2018-07-19T07:10:48.940Z,44.08
2018-07-19T07:13:18.090Z,43.53
2018-07-19T07:15:47.156Z,44.25
2018-07-19T07:18:16.227Z,43.75
2018-07-19T07:20:47.159Z,43.41
2018-07-19T07:23:16.358Z,43.12
2018-07-19T07:25:52.159Z,42.67
2018-07-19T07:28:22.703Z,43.08
2018-07-19T07:30:51.700Z,43.62
2018-07-19T07:33:21.059Z,43.22
2018-07-19T07:35:50.554Z,43.96
2018-07-19T07:38:20.190Z,43.05
2018-07-19T07:40:49.714Z,43.42
2018-07-19T07:43:18.813Z,43.34
2018-07-19T07:45:47.874Z,43.38
2018-07-19T07:48:16.958Z,43.66
2018-07-19T07:50:46.030Z,43.44
2018-07-19T07:53:15.234Z,43.72
2018-07-19T07:55:44.380Z,43.64
2018-07-19T07:58:13.519Z,42.29
2018-07-19T08:00:42.624Z,42.14
2018-07-19T08:03:11.729Z,42.17
2018-07-19T08:05:40.854Z,41.24
2018-07-19T08:08:09.912Z,41.60
2018-07-19T08:10:39.019Z,42.12
2018-07-19T08:13:08.174Z,42.12
2018-07-19T08:15:37.453Z,42.07
2018-07-19T08:18:06.539Z,41.35
2018-07-19T08:20:35.696Z,40.42
2018-07-19T08:23:04.770Z,41.11
2018-07-19T08:25:33.901Z,41.18
2018-07-19T08:28:03.054Z,40.64
2018-07-19T08:30:32.200Z,40.39
2018-07-19T08:33:01.298Z,38.96
2018-07-19T08:35:30.416Z,38.61
2018-07-19T08:37:59.489Z,39.04
2018-07-19T08:40:28.650Z,39.12
2018-07-19T08:42:57.758Z,40.27
2018-07-19T08:45:26.920Z,40.56
2018-07-19T08:47:56.046Z,40.70
2018-07-19T08:50:25.159Z,40.41
2018-07-19T08:52:54.265Z,40.76
2018-07-19T08:55:23.332Z,39.12
2018-07-19T08:57:52.392Z,37.72
2018-07-19T09:00:21.526Z,39.77
2018-07-19T09:02:50.677Z,33.79
2018-07-19T09:05:19.755Z,31.97
2018-07-19T09:07:48.914Z,28.26
2018-07-19T09:10:18.301Z,27.33
2018-07-19T09:12:47.403Z,25.25
2018-07-19T09:15:16.536Z,25.27
2018-07-19T09:17:45.704Z,26.88
2018-07-19T09:20:14.830Z,32.68
2018-07-19T09:22:44.029Z,29.20
2018-07-19T09:25:13.161Z,25.56
2018-07-19T09:27:42.279Z,26.12
2018-07-19T09:30:11.397Z,24.07
2018-07-19T09:32:40.529Z,24.04
2018-07-19T09:35:09.895Z,24.18
2018-07-19T09:37:39.020Z,25.65
2018-07-19T09:40:08.153Z,27.00
2018-07-19T09:42:37.541Z,23.76
2018-07-19T09:45:06.722Z,25.09
2018-07-19T09:47:35.821Z,26.73
2018-07-19T09:50:04.833Z,24.67
2018-07-19T09:52:33.950Z,23.24
2018-07-19T09:55:03.482Z,24.69
2018-07-19T09:57:33.050Z,24.27
2018-07-19T10:00:02.154Z,27.10
2018-07-19T10:02:31.265Z,24.52
2018-07-19T10:05:00.420Z,25.86
2018-07-19T10:07:29.518Z,25.80
2018-07-19T10:09:58.489Z,24.87
2018-07-19T10:12:27.562Z,24.40
2018-07-19T10:14:56.624Z,24.23
2018-07-19T10:17:25.758Z,24.76
2018-07-19T10:19:54.861Z,22.90
2018-07-19T10:22:23.996Z,23.16
2018-07-19T10:24:53.140Z,24.03
2018-07-19T10:27:22.250Z,24.48
2018-07-19T10:29:51.380Z,24.94
2018-07-19T10:32:20.619Z,24.86
2018-07-19T10:34:49.714Z,27.91
2018-07-19T10:37:18.886Z,29.53
2018-07-19T10:39:47.982Z,30.12
2018-07-19T10:42:31.541Z,30.38
2018-07-19T10:45:01.557Z,30.68
2018-07-19T10:47:30.629Z,29.45
2018-07-19T10:49:59.777Z,28.78
2018-07-19T10:52:28.891Z,28.57
2018-07-19T10:54:57.997Z,28.37
2018-07-19T10:57:27.126Z,28.85
2018-07-19T10:59:56.221Z,29.21
2018-07-19T11:02:25.289Z,28.58
2018-07-19T11:04:54.241Z,28.84
2018-07-19T11:07:23.304Z,27.84
2018-07-19T11:09:52.452Z,27.47
2018-07-19T11:12:21.567Z,28.51
2018-07-19T11:14:50.662Z,27.54
2018-07-19T11:17:19.761Z,27.69
2018-07-19T11:19:48.874Z,28.42
2018-07-19T11:22:17.980Z,27.76
2018-07-19T11:24:47.130Z,27.64
2018-07-19T11:27:16.330Z,27.18
2018-07-19T11:29:45.399Z,27.48
2018-07-19T11:32:14.525Z,27.13
2018-07-19T11:34:43.646Z,26.96
2018-07-19T11:37:12.724Z,26.55
2018-07-19T11:39:41.649Z,25.87
2018-07-19T11:42:10.721Z,26.42
2018-07-19T11:44:39.802Z,26.30
2018-07-19T11:47:08.913Z,26.68
2018-07-19T11:49:38.053Z,26.77
2018-07-19T11:52:07.506Z,26.33
2018-07-19T11:54:36.589Z,26.48
2018-07-19T11:57:05.657Z,26.26
2018-07-19T11:59:34.779Z,26.76
2018-07-19T12:02:03.893Z,25.27
2018-07-19T12:04:33.046Z,25.31
2018-07-19T12:07:02.149Z,25.43
2018-07-19T12:09:31.266Z,25.71
2018-07-19T12:12:00.422Z,25.45
2018-07-19T12:14:29.638Z,25.27
2018-07-19T12:16:58.705Z,24.92
2018-07-19T12:19:27.784Z,25.11
2018-07-19T12:21:56.954Z,24.96
2018-07-19T12:24:26.078Z,24.81
2018-07-19T12:26:55.154Z,25.24
2018-07-19T12:29:24.290Z,24.63
2018-07-19T12:31:53.435Z,24.65
2018-07-19T12:34:22.673Z,24.59
2018-07-19T12:36:51.736Z,24.83
2018-07-19T12:39:20.822Z,24.92
2018-07-19T12:41:49.906Z,24.34
2018-07-19T12:44:19.005Z,24.21
2018-07-19T12:46:48.109Z,23.76
2018-07-19T12:49:17.594Z,24.00
2018-07-19T12:51:46.723Z,24.21
2018-07-19T12:54:15.801Z,24.37
2018-07-19T12:56:44.995Z,23.92
2018-07-19T12:59:14.096Z,24.30
2018-07-19T13:01:46.056Z,23.74
2018-07-19T13:04:15.213Z,23.23
2018-07-19T13:06:44.736Z,23.63
2018-07-19T13:09:13.851Z,23.62
2018-07-19T13:11:43.021Z,23.37
2018-07-19T13:14:12.863Z,23.51
2018-07-19T13:16:42.147Z,23.71
2018-07-19T13:19:11.364Z,24.09
2018-07-19T13:21:40.449Z,23.20
2018-07-19T13:24:09.653Z,23.32
2018-07-19T13:26:38.984Z,23.26
2018-07-19T13:29:08.095Z,23.55
2018-07-19T13:31:37.265Z,24.24
2018-07-19T13:34:06.341Z,23.25
2018-07-19T13:36:35.533Z,23.08
2018-07-19T13:39:06.846Z,23.34
2018-07-19T13:41:36.018Z,23.03
2018-07-19T13:44:05.203Z,23.62
2018-07-19T13:46:34.295Z,23.03
2018-07-19T13:49:03.341Z,23.39
2018-07-19T13:51:32.475Z,23.61
2018-07-19T13:54:13.282Z,23.76
2018-07-19T13:56:42.729Z,24.18
2018-07-19T13:59:11.931Z,23.79
2018-07-19T14:01:41.398Z,23.31
2018-07-19T14:04:11.106Z,22.85
2018-07-19T14:06:40.495Z,23.65
2018-07-19T14:09:13.813Z,22.75
2018-07-19T14:11:42.876Z,23.50
2018-07-19T14:14:11.966Z,23.16
2018-07-19T14:16:41.021Z,22.61
2018-07-19T14:19:10.170Z,23.73
2018-07-19T14:21:39.337Z,23.67
2018-07-19T14:24:08.438Z,22.97
2018-07-19T14:26:37.517Z,22.95
2018-07-19T14:29:06.705Z,23.30
2018-07-19T14:31:35.790Z,23.12
2018-07-19T14:34:04.868Z,22.90
2018-07-19T14:36:33.943Z,22.85
2018-07-19T14:39:03.010Z,23.05
2018-07-19T14:41:32.106Z,23.20
2018-07-19T14:44:01.169Z,23.50
2018-07-19T14:46:30.210Z,22.70
2018-07-19T14:48:59.352Z,23.20
2018-07-19T14:51:28.496Z,23.61
2018-07-19T14:53:57.595Z,23.66
2018-07-19T14:56:26.736Z,23.97
2018-07-19T14:58:55.883Z,24.12
2018-07-19T15:01:24.958Z,23.41
2018-07-19T15:03:54.099Z,23.81
2018-07-19T15:06:23.196Z,23.96
2018-07-19T15:08:52.339Z,23.31
2018-07-19T15:11:21.441Z,24.00
2018-07-19T15:13:50.502Z,23.92
2018-07-19T15:16:19.908Z,23.43
2018-07-19T15:18:49.043Z,23.92
2018-07-19T15:21:18.178Z,23.72
2018-07-19T15:23:47.292Z,24.49
2018-07-19T15:26:16.437Z,24.37
2018-07-19T15:28:45.541Z,23.87
2018-07-19T15:31:14.910Z,23.67
2018-07-19T15:33:44.121Z,23.92
2018-07-19T15:36:13.221Z,24.18
2018-07-19T15:38:42.334Z,24.49
2018-07-19T15:41:11.417Z,24.25
2018-07-19T15:43:40.508Z,25.03
2018-07-19T15:46:09.644Z,25.93
2018-07-19T15:48:38.736Z,25.21
2018-07-19T15:51:07.793Z,25.27
2018-07-19T15:53:36.948Z,24.74
2018-07-19T15:56:06.096Z,25.09
2018-07-19T15:58:35.218Z,24.66
2018-07-19T16:01:04.404Z,25.10
2018-07-19T16:03:33.563Z,24.66
2018-07-19T16:06:02.630Z,24.87
2018-07-19T16:08:31.761Z,24.53
2018-07-19T16:11:00.873Z,24.10
2018-07-19T16:13:29.946Z,24.97
2018-07-19T16:15:59.069Z,24.68
2018-07-19T16:18:28.153Z,24.46
2018-07-19T16:20:57.231Z,24.90
2018-07-19T16:23:26.534Z,24.38
2018-07-19T16:25:55.647Z,24.92
2018-07-19T16:28:24.709Z,25.52
2018-07-19T16:30:53.846Z,25.02
2018-07-19T16:33:22.893Z,25.22
2018-07-19T16:35:52.020Z,25.11
2018-07-19T16:38:21.339Z,25.43
2018-07-19T16:40:50.545Z,25.64
2018-07-19T16:43:19.647Z,25.75
2018-07-19T16:45:48.792Z,26.01
2018-07-19T16:48:17.962Z,26.35
2018-07-19T16:50:47.065Z,26.50
2018-07-19T16:53:16.146Z,26.32
2018-07-19T16:55:45.251Z,26.64
2018-07-19T16:58:14.345Z,26.89
2018-07-19T17:00:43.474Z,27.21
2018-07-19T17:03:12.667Z,27.38
2018-07-19T17:05:41.801Z,27.25
2018-07-19T17:08:10.894Z,27.28
2018-07-19T17:10:40.105Z,27.54
2018-07-19T17:13:09.149Z,27.80
2018-07-19T17:15:38.218Z,28.31
2018-07-19T17:18:07.543Z,27.87
2018-07-19T17:20:36.647Z,28.01
2018-07-19T17:23:05.895Z,28.22
2018-07-19T17:25:34.974Z,28.36
2018-07-19T17:28:04.114Z,28.51
2018-07-19T17:30:33.170Z,27.98
2018-07-19T17:33:02.334Z,28.30
2018-07-19T17:35:31.402Z,28.33
2018-07-19T17:38:00.546Z,28.11
2018-07-19T17:40:29.649Z,28.37
2018-07-19T17:42:58.768Z,28.52
2018-07-19T17:45:27.899Z,28.30
2018-07-19T17:47:56.966Z,28.65
2018-07-19T17:50:26.069Z,29.22
2018-07-19T17:52:55.336Z,29.00
2018-07-19T17:55:24.474Z,28.84
2018-07-19T17:57:53.590Z,28.71
2018-07-19T18:00:22.693Z,29.17
2018-07-19T18:02:51.782Z,29.68
2018-07-19T18:05:20.897Z,29.37
2018-07-19T18:07:49.976Z,29.79
2018-07-19T18:10:19.106Z,29.57
2018-07-19T18:12:48.242Z,29.95
2018-07-19T18:15:17.406Z,29.92
2018-07-19T18:17:46.598Z,30.23
2018-07-19T18:20:15.722Z,30.67
2018-07-19T18:22:44.780Z,30.46
2018-07-19T18:25:13.899Z,30.76
2018-07-19T18:27:43.055Z,30.56
2018-07-19T18:30:12.167Z,30.66
2018-07-19T18:32:41.279Z,30.63
2018-07-19T18:35:10.418Z,30.97
2018-07-19T18:37:39.589Z,30.68
2018-07-19T18:40:08.718Z,31.24
2018-07-19T18:42:37.798Z,31.16
2018-07-19T18:45:06.867Z,31.67
2018-07-19T18:47:35.925Z,31.20
2018-07-19T18:50:04.999Z,31.57
2018-07-19T18:52:34.178Z,31.81
2018-07-19T18:55:03.255Z,32.18
2018-07-19T18:57:32.389Z,31.81
2018-07-19T19:00:01.553Z,31.55
2018-07-19T19:02:30.699Z,32.30
2018-07-19T19:04:59.790Z,32.29
2018-07-19T19:07:28.903Z,32.45
2018-07-19T19:09:58.010Z,32.63
2018-07-19T19:12:27.061Z,32.49
2018-07-19T19:14:56.208Z,33.02
2018-07-19T19:17:25.306Z,33.26
2018-07-19T19:19:54.380Z,32.93
2018-07-19T19:22:23.468Z,32.91
2018-07-19T19:24:52.633Z,33.04
2018-07-19T19:27:21.764Z,33.66
2018-07-19T19:29:50.854Z,33.31
2018-07-19T19:32:20.019Z,33.66
2018-07-19T19:34:49.172Z,33.79
2018-07-19T19:37:18.282Z,33.90
2018-07-19T19:39:47.417Z,33.92
2018-07-19T19:42:16.535Z,33.86
2018-07-19T19:44:45.597Z,34.25
2018-07-19T19:47:14.788Z,34.21
2018-07-19T19:49:43.895Z,33.87
2018-07-19T19:52:12.990Z,34.43
2018-07-19T19:54:42.129Z,34.34
2018-07-19T19:57:11.210Z,34.66
2018-07-19T19:59:40.349Z,34.36
2018-07-19T20:02:09.458Z,35.04
2018-07-19T20:04:38.591Z,34.80
2018-07-19T20:07:07.720Z,35.12
2018-07-19T20:09:36.799Z,34.83
2018-07-19T20:12:05.706Z,35.30
2018-07-19T20:14:34.838Z,35.48
2018-07-19T20:17:03.969Z,35.23
2018-07-19T20:19:33.158Z,35.30
2018-07-19T20:22:02.222Z,35.38
2018-07-19T20:24:31.337Z,35.54
2018-07-19T20:27:00.405Z,35.81
2018-07-19T20:29:29.520Z,35.78
2018-07-19T20:31:58.642Z,35.83
2018-07-19T20:34:27.728Z,35.87
2018-07-19T20:36:56.852Z,36.05
2018-07-19T20:39:25.958Z,36.19
2018-07-19T20:41:55.074Z,36.00
2018-07-19T20:44:24.141Z,36.05
2018-07-19T20:46:53.242Z,36.15
2018-07-19T20:49:22.362Z,36.46
2018-07-19T20:51:51.476Z,36.81
2018-07-19T20:54:20.530Z,36.87
2018-07-19T20:56:49.725Z,37.18
2018-07-19T20:59:18.834Z,37.01
2018-07-19T21:01:47.969Z,36.96
2018-07-19T21:04:17.065Z,37.18
2018-07-19T21:06:46.288Z,37.35
2018-07-19T21:09:15.432Z,37.44
2018-07-19T21:11:44.578Z,37.51
2018-07-19T21:14:13.693Z,37.83
2018-07-19T21:16:42.821Z,38.12
2018-07-19T21:19:11.929Z,38.04
2018-07-19T21:21:41.063Z,38.25
2018-07-19T21:24:10.235Z,38.17
2018-07-19T21:26:39.418Z,38.46
2018-07-19T21:29:08.478Z,38.42
2018-07-19T21:31:37.584Z,38.80
2018-07-19T21:34:06.692Z,38.92
2018-07-19T21:36:35.818Z,38.53
2018-07-19T21:39:08.223Z,38.87
2018-07-19T21:41:37.367Z,39.31
2018-07-19T21:44:06.743Z,39.33
2018-07-19T21:46:35.807Z,39.60
2018-07-19T21:49:05.327Z,39.10
2018-07-19T21:51:34.478Z,39.30
2018-07-19T21:54:03.611Z,39.73
2018-07-19T21:56:32.716Z,39.61
2018-07-19T21:59:01.669Z,40.08
2018-07-19T22:01:30.756Z,39.74
2018-07-19T22:03:59.878Z,40.05
2018-07-19T22:06:29.013Z,40.33
2018-07-19T22:08:58.146Z,40.80
2018-07-19T22:11:27.250Z,40.32
2018-07-19T22:13:56.424Z,40.16
2018-07-19T22:16:25.598Z,40.48
2018-07-19T22:18:54.683Z,40.79
2018-07-19T22:21:23.770Z,40.61
2018-07-19T22:23:52.849Z,41.09
2018-07-19T22:26:21.915Z,40.93
2018-07-19T22:28:51.042Z,41.77
2018-07-19T22:31:20.465Z,42.06
2018-07-19T22:33:50.043Z,43.25
2018-07-19T22:36:19.464Z,43.79
2018-07-19T22:38:48.845Z,43.97
2018-07-19T22:41:18.002Z,44.22
2018-07-19T22:43:47.131Z,44.68
2018-07-19T22:46:16.247Z,45.14
2018-07-19T22:48:45.379Z,45.11
2018-07-19T22:51:14.502Z,45.26
2018-07-19T22:53:43.647Z,45.21
2018-07-19T22:56:12.693Z,45.51
2018-07-19T22:58:41.819Z,45.51
2018-07-19T23:01:10.938Z,45.75
2018-07-19T23:03:40.167Z,46.13
2018-07-19T23:06:09.316Z,45.95
2018-07-19T23:08:38.492Z,46.43
2018-07-19T23:11:07.652Z,46.46
2018-07-19T23:13:36.776Z,46.27
2018-07-19T23:16:05.890Z,46.37
2018-07-19T23:18:34.998Z,46.44
2018-07-19T23:21:04.157Z,46.42
2018-07-19T23:23:33.266Z,46.90
2018-07-19T23:26:02.360Z,47.29
2018-07-19T23:28:31.430Z,47.05
2018-07-19T23:31:00.553Z,47.13
2018-07-19T23:33:29.703Z,46.94
2018-07-19T23:37:03.907Z,47.56
2018-07-19T23:39:36.533Z,46.96
2018-07-19T23:43:08.739Z,46.98
2018-07-19T23:45:43.273Z,46.85
2018-07-19T23:48:12.460Z,46.36
2018-07-19T23:50:41.571Z,46.37
2018-07-19T23:53:10.722Z,46.29
2018-07-19T23:55:39.785Z,46.83
2018-07-19T23:58:08.867Z,47.17
